createdAt,value
2018-10-19T00:00:38.957Z,102425.36
2018-10-19T00:03:42.466Z,102413.00
2018-10-19T00:06:50.106Z,102416.72
2018-10-19T00:09:54.956Z,102419.99
2018-10-19T00:12:58.447Z,102417.59
2018-10-19T00:16:02.074Z,102417.50
2018-10-19T00:19:06.087Z,102419.40
2018-10-19T00:22:09.590Z,102414.50
2018-10-19T00:25:13.141Z,102418.10
2018-10-19T00:28:21.827Z,102419.33
2018-10-19T00:31:25.330Z,102419.48
2018-10-19T00:34:28.891Z,102424.94
2018-10-19T00:37:32.507Z,102422.76
2018-10-19T00:40:36.007Z,102424.59
2018-10-19T00:43:39.552Z,102423.81
2018-10-19T00:46:43.065Z,102422.70
2018-10-19T00:49:46.598Z,102428.73
2018-10-19T00:52:50.121Z,102431.22
2018-10-19T00:55:53.656Z,102425.86
2018-10-19T00:58:57.116Z,102425.93
2018-10-19T01:02:00.665Z,102426.91
2018-10-19T01:05:05.338Z,102419.49
2018-10-19T01:08:09.604Z,102427.46
2018-10-19T01:11:13.278Z,102418.74
2018-10-19T01:14:16.761Z,102420.26
2018-10-19T01:17:21.319Z,102412.51
2018-10-19T01:20:25.001Z,102408.38
2018-10-19T01:23:28.505Z,102409.31
2018-10-19T01:26:32.039Z,102409.74
2018-10-19T01:29:35.518Z,102400.17
2018-10-19T01:32:39.370Z,102403.84
2018-10-19T01:35:44.908Z,102398.05
2018-10-19T01:38:49.400Z,102399.81
2018-10-19T01:41:52.950Z,102393.03
2018-10-19T01:44:56.471Z,102394.93
2018-10-19T01:48:00.424Z,102396.94
2018-10-19T01:51:04.066Z,102392.51
2018-10-19T01:54:07.581Z,102395.22
2018-10-19T01:57:11.089Z,102395.67
2018-10-19T02:00:14.599Z,102396.45
2018-10-19T02:03:18.199Z,102397.27
2018-10-19T02:06:21.914Z,102402.37
2018-10-19T02:09:25.352Z,102394.29
2018-10-19T02:12:29.010Z,102407.93
2018-10-19T02:15:33.503Z,102408.90
2018-10-19T02:18:37.049Z,102406.75
2018-10-19T02:21:40.720Z,102404.79
2018-10-19T02:24:44.198Z,102409.04
2018-10-19T02:27:47.902Z,102398.67
2018-10-19T02:30:51.567Z,102400.15
2018-10-19T02:33:55.015Z,102397.54
2018-10-19T02:36:58.588Z,102398.13
2018-10-19T02:40:02.256Z,102401.02
2018-10-19T02:43:06.204Z,102399.46
2018-10-19T02:46:09.783Z,102391.48
2018-10-19T02:49:13.274Z,102390.65
2018-10-19T02:52:16.778Z,102390.11
2018-10-19T02:55:20.313Z,102389.75
2018-10-19T02:58:23.864Z,102395.02
2018-10-19T03:01:27.362Z,102398.38
2018-10-19T03:04:30.777Z,102400.49
2018-10-19T03:07:34.281Z,102402.63
2018-10-19T03:10:37.826Z,102410.76
2018-10-19T03:13:41.391Z,102418.28
2018-10-19T03:16:45.118Z,102418.41
2018-10-19T03:19:48.809Z,102420.11
2018-10-19T03:22:52.645Z,102425.01
2018-10-19T03:25:56.193Z,102425.23
2018-10-19T03:29:03.581Z,102425.16
2018-10-19T03:32:07.217Z,102416.76
2018-10-19T03:35:10.786Z,102427.08
2018-10-19T03:38:14.233Z,102422.88
2018-10-19T03:41:17.808Z,102430.09
2018-10-19T03:44:21.323Z,102431.39
2018-10-19T03:47:24.874Z,102430.65
2018-10-19T03:50:28.506Z,102425.47
2018-10-19T03:53:32.207Z,102433.76
2018-10-19T03:56:35.690Z,102433.07
2018-10-19T03:59:44.603Z,102434.67
2018-10-19T04:02:48.127Z,102435.50
2018-10-19T04:05:51.653Z,102443.74
2018-10-19T04:08:57.092Z,102438.25
2018-10-19T04:12:00.687Z,102440.98
2018-10-19T04:15:05.187Z,102446.34
2018-10-19T04:18:08.677Z,102444.77
2018-10-19T04:21:29.095Z,102448.48
2018-10-19T04:24:39.649Z,102444.25
2018-10-19T04:27:49.075Z,102446.47
2018-10-19T04:30:54.005Z,102451.34
2018-10-19T04:33:58.591Z,102451.22
2018-10-19T04:37:05.099Z,102455.37
2018-10-19T04:40:17.616Z,102453.83
2018-10-19T04:43:21.186Z,102451.30
2018-10-19T04:46:24.661Z,102445.91
2018-10-19T04:49:30.237Z,102451.43
2018-10-19T04:52:40.047Z,102453.18
2018-10-19T04:55:43.697Z,102457.32
2018-10-19T04:58:47.109Z,102459.56
2018-10-19T05:01:50.504Z,102457.66
2018-10-19T05:04:54.007Z,102460.36
2018-10-19T05:07:57.609Z,102461.22
2018-10-19T05:11:01.139Z,102460.42
2018-10-19T05:14:04.542Z,102461.93
2018-10-19T05:17:09.116Z,102460.14
2018-10-19T05:20:13.476Z,102467.05
2018-10-19T05:23:16.901Z,102473.96
2018-10-19T05:26:24.641Z,102473.14
2018-10-19T05:29:28.162Z,102478.84
2018-10-19T05:32:31.679Z,102485.77
2018-10-19T05:35:35.239Z,102481.10
2018-10-19T05:38:38.782Z,102481.23
2018-10-19T05:41:42.491Z,102479.52
2018-10-19T05:44:45.997Z,102482.19
2018-10-19T05:47:49.655Z,102483.19
2018-10-19T05:50:53.163Z,102484.01
2018-10-19T05:53:56.712Z,102491.24
2018-10-19T05:57:00.281Z,102495.04
2018-10-19T06:00:03.889Z,102501.98
2018-10-19T06:03:08.439Z,102505.39
2018-10-19T06:06:12.043Z,102503.53
2018-10-19T06:09:15.452Z,102510.88
2018-10-19T06:12:18.900Z,102511.41
2018-10-19T06:15:22.457Z,102509.96
2018-10-19T06:18:25.892Z,102513.76
2018-10-19T06:21:29.404Z,102514.86
2018-10-19T06:24:32.959Z,102519.76
2018-10-19T06:27:36.399Z,102519.31
2018-10-19T06:30:39.931Z,102518.06
2018-10-19T06:33:43.504Z,102519.03
2018-10-19T06:36:46.998Z,102524.44
2018-10-19T06:39:50.596Z,102526.61
2018-10-19T06:42:54.114Z,102533.40
2018-10-19T06:45:57.675Z,102531.50
2018-10-19T06:49:01.062Z,102529.73
2018-10-19T06:52:04.546Z,102533.48
2018-10-19T06:55:09.475Z,102537.13
2018-10-19T06:58:13.193Z,102538.47
2018-10-19T07:01:16.692Z,102532.80
2018-10-19T07:04:20.231Z,102529.54
2018-10-19T07:07:23.766Z,102529.03
2018-10-19T07:10:27.325Z,102534.36
2018-10-19T07:13:30.799Z,102541.21
2018-10-19T07:16:34.612Z,102544.39
2018-10-19T07:19:38.109Z,102541.54
2018-10-19T07:22:41.693Z,102536.56
2018-10-19T07:25:45.213Z,102533.27
2018-10-19T07:28:48.695Z,102532.38
2018-10-19T07:31:52.119Z,102537.52
2018-10-19T07:34:55.616Z,102539.37
2018-10-19T07:38:00.135Z,102537.53
2018-10-19T07:41:03.680Z,102541.98
2018-10-19T07:44:07.190Z,102546.07
2018-10-19T07:47:10.794Z,102546.36
2018-10-19T07:50:14.251Z,102540.96
2018-10-19T07:53:17.698Z,102546.81
2018-10-19T07:56:21.349Z,102545.39
2018-10-19T07:59:24.897Z,102549.94
2018-10-19T08:02:28.361Z,102549.30
2018-10-19T08:05:32.016Z,102550.31
2018-10-19T08:08:35.633Z,102551.18
2018-10-19T08:11:39.270Z,102552.50
2018-10-19T08:14:42.721Z,102549.44
2018-10-19T08:17:46.259Z,102541.16
2018-10-19T08:20:49.745Z,102546.17
2018-10-19T08:23:54.259Z,102546.79
2018-10-19T08:26:57.663Z,102547.74
2018-10-19T08:30:01.266Z,102543.20
2018-10-19T08:33:04.868Z,102543.36
2018-10-19T08:36:08.585Z,102547.23
2018-10-19T08:39:12.078Z,102543.68
2018-10-19T08:42:15.683Z,102538.24
2018-10-19T08:45:19.869Z,102543.12
2018-10-19T08:48:23.470Z,102545.77
2018-10-19T08:51:27.001Z,102552.16
2018-10-19T08:54:30.669Z,102541.51
2018-10-19T08:57:34.109Z,102537.54
2018-10-19T09:00:37.725Z,102542.13
2018-10-19T09:03:41.410Z,102537.36
2018-10-19T09:06:44.647Z,102540.19
2018-10-19T09:09:48.245Z,102539.02
2018-10-19T09:12:51.773Z,102543.64
2018-10-19T09:15:55.201Z,102543.76
2018-10-19T09:18:58.737Z,102543.02
2018-10-19T09:22:02.260Z,102538.90
2018-10-19T09:25:05.789Z,102536.15
2018-10-19T09:28:09.271Z,102543.59
2018-10-19T09:31:12.692Z,102541.49
2018-10-19T09:34:16.140Z,102538.91
2018-10-19T09:37:19.659Z,102538.27
2018-10-19T09:40:23.141Z,102535.93
2018-10-19T09:43:26.499Z,102530.60
2018-10-19T09:46:30.042Z,102528.24
2018-10-19T09:49:33.522Z,102527.67
2018-10-19T09:52:36.952Z,102530.53
2018-10-19T09:55:40.428Z,102530.40
2018-10-19T09:58:43.842Z,102530.58
2018-10-19T10:01:47.220Z,102528.78
2018-10-19T10:04:50.756Z,102526.10
2018-10-19T10:07:54.436Z,102522.86
2018-10-19T10:10:57.872Z,102530.35
2018-10-19T10:14:01.224Z,102526.55
2018-10-19T10:17:05.023Z,102523.67
2018-10-19T10:20:08.739Z,102520.96
2018-10-19T10:23:12.295Z,102519.14
2018-10-19T10:26:15.908Z,102514.65
2018-10-19T10:29:19.492Z,102511.95
2018-10-19T10:32:23.115Z,102512.71
2018-10-19T10:35:26.700Z,102510.06
2018-10-19T10:38:30.258Z,102505.88
2018-10-19T10:41:33.740Z,102501.20
2018-10-19T10:44:37.312Z,102505.40
2018-10-19T10:47:40.918Z,102504.30
2018-10-19T10:50:44.488Z,102504.61
2018-10-19T10:53:48.012Z,102503.30
2018-10-19T10:56:51.528Z,102501.31
2018-10-19T10:59:56.057Z,102494.64
2018-10-19T11:02:59.612Z,102486.85
2018-10-19T11:06:03.150Z,102491.26
2018-10-19T11:09:09.705Z,102481.09
2018-10-19T11:12:13.241Z,102478.97
2018-10-19T11:15:16.833Z,102474.82
2018-10-19T11:18:20.303Z,102465.44
2018-10-19T11:21:23.854Z,102455.73
2018-10-19T11:24:27.443Z,102461.22
2018-10-19T11:27:30.913Z,102462.45
2018-10-19T11:30:34.471Z,102455.67
2018-10-19T11:33:37.931Z,102456.35
2018-10-19T11:36:41.425Z,102450.80
2018-10-19T11:40:48.280Z,102449.75
2018-10-19T11:43:51.859Z,102448.64
2018-10-19T11:46:59.926Z,102447.69
2018-10-19T11:50:03.492Z,102445.87
2018-10-19T11:53:07.112Z,102439.96
2018-10-19T11:56:10.671Z,102441.64
2018-10-19T11:59:14.135Z,102439.86
2018-10-19T12:02:17.666Z,102437.10
2018-10-19T12:05:21.184Z,102439.20
2018-10-19T12:08:24.793Z,102429.87
2018-10-19T12:11:28.451Z,102428.02
2018-10-19T12:14:31.882Z,102424.00
2018-10-19T12:17:35.413Z,102418.70
2018-10-19T12:20:38.856Z,102414.52
2018-10-19T12:23:42.542Z,102412.64
2018-10-19T12:26:46.101Z,102408.49
2018-10-19T12:29:49.679Z,102400.82
2018-10-19T12:32:53.194Z,102394.67
2018-10-19T12:35:56.719Z,102396.27
2018-10-19T12:39:00.180Z,102399.03
2018-10-19T12:42:03.616Z,102398.76
2018-10-19T12:45:18.244Z,102394.58
2018-10-19T12:48:21.584Z,102391.01
2018-10-19T12:51:26.165Z,102389.03
2018-10-19T12:54:29.830Z,102388.32
2018-10-19T12:57:33.422Z,102384.24
2018-10-19T13:00:36.854Z,102384.45
2018-10-19T13:03:40.785Z,102381.28
2018-10-19T13:06:44.258Z,102377.87
2018-10-19T13:09:47.618Z,102379.05
2018-10-19T13:12:53.970Z,102375.80
2018-10-19T13:15:57.416Z,102373.63
2018-10-19T13:19:00.925Z,102370.36
2018-10-19T13:22:04.366Z,102369.96
2018-10-19T13:25:07.848Z,102370.32
2018-10-19T13:28:11.405Z,102370.47
2018-10-19T13:31:14.907Z,102368.48
2018-10-19T13:34:18.436Z,102372.80
2018-10-19T13:37:21.912Z,102372.32
2018-10-19T13:40:25.497Z,102372.91
2018-10-19T13:43:28.968Z,102368.85
2018-10-19T13:46:32.441Z,102370.10
2018-10-19T13:49:35.848Z,102364.85
2018-10-19T13:52:39.250Z,102366.32
2018-10-19T13:55:42.711Z,102362.13
2018-10-19T13:58:46.086Z,102366.82
2018-10-19T14:01:49.613Z,102367.99
2018-10-19T14:04:53.147Z,102364.54
2018-10-19T14:07:56.612Z,102364.70
2018-10-19T14:11:00.372Z,102361.16
2018-10-19T14:14:03.872Z,102361.77
2018-10-19T14:17:07.346Z,102366.67
2018-10-19T14:20:12.240Z,102360.30
2018-10-19T14:23:15.831Z,102349.75
2018-10-19T14:26:19.246Z,102353.02
2018-10-19T14:29:22.720Z,102349.62
2018-10-19T14:32:26.191Z,102343.61
2018-10-19T14:35:29.633Z,102348.16
2018-10-19T14:38:33.004Z,102345.97
2018-10-19T14:41:36.443Z,102349.34
2018-10-19T14:44:40.149Z,102351.47
2018-10-19T14:47:44.347Z,102358.80
2018-10-19T14:50:47.874Z,102355.54
2018-10-19T14:53:51.273Z,102354.34
2018-10-19T14:56:54.923Z,102356.02
2018-10-19T14:59:58.387Z,102357.66
2018-10-19T15:03:01.918Z,102354.23
2018-10-19T15:06:05.731Z,102356.31
2018-10-19T15:09:10.975Z,102357.57
2018-10-19T15:12:14.360Z,102361.29
2018-10-19T15:15:21.053Z,102367.95
2018-10-19T15:18:24.504Z,102366.90
2018-10-19T15:21:27.946Z,102368.05
2018-10-19T15:24:31.616Z,102367.87
2018-10-19T15:27:35.063Z,102364.24
2018-10-19T15:30:38.854Z,102359.56
2018-10-19T15:33:42.439Z,102359.43
2018-10-19T15:36:45.869Z,102357.97
2018-10-19T15:39:49.315Z,102363.56
2018-10-19T15:42:52.736Z,102361.04
2018-10-19T15:45:56.101Z,102359.82
2018-10-19T15:48:59.537Z,102356.41
2018-10-19T15:52:03.008Z,102348.33
2018-10-19T15:55:06.984Z,102348.35
2018-10-19T15:58:10.456Z,102349.64
2018-10-19T16:01:13.819Z,102351.41
2018-10-19T16:04:17.224Z,102354.82
2018-10-19T16:07:20.775Z,102360.36
2018-10-19T16:10:24.279Z,102362.02
2018-10-19T16:13:27.802Z,102358.87
2018-10-19T16:16:31.351Z,102365.22
2018-10-19T16:19:34.836Z,102368.72
2018-10-19T16:22:38.796Z,102369.64
2018-10-19T16:25:42.303Z,102368.44
2018-10-19T16:28:45.833Z,102372.27
2018-10-19T16:31:50.292Z,102369.44
2018-10-19T16:34:53.866Z,102376.05
2018-10-19T16:37:57.443Z,102384.64
2018-10-19T16:41:00.944Z,102384.66
2018-10-19T16:44:04.722Z,102388.67
2018-10-19T16:47:08.171Z,102393.33
2018-10-19T16:50:12.697Z,102398.03
2018-10-19T16:53:16.283Z,102401.72
2018-10-19T16:56:19.878Z,102407.95
2018-10-19T16:59:23.464Z,102408.32
2018-10-19T17:02:26.965Z,102411.34
2018-10-19T17:05:30.405Z,102413.51
2018-10-19T17:08:33.905Z,102416.79
2018-10-19T17:11:37.477Z,102415.83
2018-10-19T17:14:41.460Z,102422.03
2018-10-19T17:17:45.056Z,102427.95
2018-10-19T17:20:48.701Z,102435.98
2018-10-19T17:23:53.328Z,102437.49
2018-10-19T17:26:56.886Z,102443.76
2018-10-19T17:30:01.388Z,102450.76
2018-10-19T17:33:05.289Z,102466.88
2018-10-19T17:36:08.795Z,102471.97
2018-10-19T17:39:12.674Z,102471.27
2018-10-19T17:42:16.188Z,102474.88
2018-10-19T17:45:19.749Z,102475.98
2018-10-19T17:48:23.337Z,102476.52
2018-10-19T17:51:27.020Z,102485.83
2018-10-19T17:54:30.591Z,102488.67
2018-10-19T17:57:38.122Z,102495.27
2018-10-19T18:00:41.699Z,102492.46
2018-10-19T18:03:46.223Z,102498.64
2018-10-19T18:06:49.909Z,102493.98
2018-10-19T18:09:54.463Z,102498.13
2018-10-19T18:12:58.031Z,102506.47
2018-10-19T18:16:01.952Z,102512.90
2018-10-19T18:19:06.802Z,102512.43
2018-10-19T18:22:10.952Z,102519.70
2018-10-19T18:25:14.351Z,102519.53
2018-10-19T18:28:17.995Z,102523.81
2018-10-19T18:31:21.600Z,102532.71
2018-10-19T18:34:25.384Z,102529.50
2018-10-19T18:37:29.331Z,102536.21
2018-10-19T18:40:33.007Z,102531.21
2018-10-19T18:43:37.770Z,102535.48
2018-10-19T18:46:41.624Z,102539.77
2018-10-19T18:49:45.154Z,102539.21
2018-10-19T18:52:48.967Z,102540.19
2018-10-19T18:55:52.691Z,102541.53
2018-10-19T18:58:56.279Z,102541.76
2018-10-19T19:01:59.822Z,102539.51
2018-10-19T19:05:03.316Z,102540.33
2018-10-19T19:08:06.985Z,102541.01
2018-10-19T19:11:10.776Z,102551.75
2018-10-19T19:14:15.355Z,102559.73
2018-10-19T19:17:18.979Z,102562.56
2018-10-19T19:20:25.646Z,102567.03
2018-10-19T19:23:29.255Z,102579.49
2018-10-19T19:26:32.794Z,102575.22
2018-10-19T19:29:36.312Z,102575.11
2018-10-19T19:32:48.363Z,102572.72
2018-10-19T19:35:51.973Z,102577.99
2018-10-19T19:38:56.007Z,102591.66
2018-10-19T19:42:07.028Z,102594.54
2018-10-19T19:45:13.775Z,102598.21
2018-10-19T19:48:22.517Z,102586.56
2018-10-19T19:51:25.934Z,102596.29
2018-10-19T19:54:29.481Z,102599.92
2018-10-19T19:57:32.982Z,102604.60
2018-10-19T20:00:36.478Z,102610.73
2018-10-19T20:03:39.879Z,102621.11
2018-10-19T20:06:43.345Z,102623.38
2018-10-19T20:09:47.263Z,102621.09
2018-10-19T20:12:50.781Z,102629.66
2018-10-19T20:15:54.345Z,102635.00
2018-10-19T20:18:58.064Z,102644.09
2018-10-19T20:22:01.668Z,102648.61
2018-10-19T20:25:07.246Z,102651.89
2018-10-19T20:28:10.778Z,102654.89
2018-10-19T20:31:14.283Z,102654.11
2018-10-19T20:34:17.882Z,102656.28
2018-10-19T20:37:21.373Z,102653.68
2018-10-19T20:40:25.100Z,102656.99
2018-10-19T20:43:28.571Z,102659.59
2018-10-19T20:46:32.143Z,102660.92
2018-10-19T20:49:35.693Z,102659.46
2018-10-19T20:52:39.565Z,102664.50
2018-10-19T20:55:43.253Z,102668.10
2018-10-19T20:58:47.099Z,102665.09
2018-10-19T21:01:50.634Z,102673.30
2018-10-19T21:04:54.259Z,102673.25
2018-10-19T21:07:58.209Z,102669.31
2018-10-19T21:11:02.787Z,102669.46
2018-10-19T21:14:06.877Z,102658.92
2018-10-19T21:17:10.409Z,102656.45
2018-10-19T21:20:13.980Z,102660.26
2018-10-19T21:23:17.505Z,102664.99
2018-10-19T21:26:24.911Z,102665.29
2018-10-19T21:29:30.465Z,102669.24
2018-10-19T21:32:33.962Z,102669.26
2018-10-19T21:35:38.470Z,102669.04
2018-10-19T21:38:41.956Z,102669.04
2018-10-19T21:41:45.646Z,102670.87
2018-10-19T21:44:49.304Z,102677.58
2018-10-19T21:47:52.927Z,102683.63
2018-10-19T21:50:56.530Z,102687.86
2018-10-19T21:54:00.163Z,102691.91
2018-10-19T21:57:03.950Z,102687.50
2018-10-19T22:00:09.256Z,102689.96
2018-10-19T22:03:12.781Z,102682.81
2018-10-19T22:06:16.288Z,102684.68
2018-10-19T22:09:19.762Z,102685.08
2018-10-19T22:12:23.701Z,102679.98
2018-10-19T22:15:27.153Z,102682.82
2018-10-19T22:18:30.709Z,102684.76
2018-10-19T22:21:34.252Z,102679.06
2018-10-19T22:24:37.767Z,102672.57
2018-10-19T22:27:41.369Z,102668.91
2018-10-19T22:30:44.893Z,102665.18
2018-10-19T22:33:48.373Z,102674.50
2018-10-19T22:36:51.908Z,102680.59
2018-10-19T22:39:55.494Z,102688.63
2018-10-19T22:42:59.000Z,102692.88
2018-10-19T22:46:02.578Z,102692.58
2018-10-19T22:49:06.158Z,102683.66
2018-10-19T22:52:09.754Z,102679.48
2018-10-19T22:55:13.336Z,102681.57
2018-10-19T22:58:16.831Z,102688.17
2018-10-19T23:01:20.366Z,102686.52
2018-10-19T23:04:23.864Z,102692.62
2018-10-19T23:07:27.414Z,102688.43
2018-10-19T23:10:32.037Z,102686.91
2018-10-19T23:13:35.577Z,102687.53
2018-10-19T23:16:39.114Z,102683.49
2018-10-19T23:19:42.569Z,102689.11
2018-10-19T23:22:46.321Z,102697.86
2018-10-19T23:25:49.866Z,102696.07
2018-10-19T23:28:53.431Z,102699.27
2018-10-19T23:31:57.902Z,102701.20
2018-10-19T23:35:03.422Z,102709.01
2018-10-19T23:38:07.012Z,102708.39
2018-10-19T23:41:10.588Z,102707.79
2018-10-19T23:44:15.089Z,102717.89
2018-10-19T23:47:18.671Z,102718.07
2018-10-19T23:50:22.255Z,102717.00
2018-10-19T23:53:25.693Z,102714.69
2018-10-19T23:56:29.448Z,102713.28
2018-10-19T23:59:32.927Z,102719.94
